sensor_id;sensor_type;location;lat;lon;timestamp;P1;durP1;ratioP1;P2;durP2;ratioP2
31073;SDS011;17730;53.552;9.940;2023-01-09T00:01:44;3.72;;;2.75;;
31073;SDS011;17730;53.552;9.940;2023-01-09T00:04:03;6.68;;;3.10;;
31073;SDS011;17730;53.552;9.940;2023-01-09T00:06:29;4.97;;;2.97;;
31073;SDS011;17730;53.552;9.940;2023-01-09T00:08:54;4.78;;;2.67;;
31073;SDS011;17730;53.552;9.940;2023-01-09T00:11:20;4.75;;;2.85;;
31073;SDS011;17730;53.552;9.940;2023-01-09T00:13:46;6.63;;;2.97;;
31073;SDS011;17730;53.552;9.940;2023-01-09T00:16:12;6.53;;;3.10;;
31073;SDS011;17730;53.552;9.940;2023-01-09T00:18:37;5.47;;;2.83;;
31073;SDS011;17730;53.552;9.940;2023-01-09T00:21:04;5.28;;;3.33;;
31073;SDS011;17730;53.552;9.940;2023-01-09T00:23:31;4.45;;;3.03;;
31073;SDS011;17730;53.552;9.940;2023-01-09T00:26:16;5.80;;;3.05;;
31073;SDS011;17730;53.552;9.940;2023-01-09T00:28:44;4.70;;;2.83;;
31073;SDS011;17730;53.552;9.940;2023-01-09T00:31:11;4.75;;;3.10;;
31073;SDS011;17730;53.552;9.940;2023-01-09T00:33:39;4.20;;;2.83;;
31073;SDS011;17730;53.552;9.940;2023-01-09T00:36:07;6.65;;;3.22;;
31073;SDS011;17730;53.552;9.940;2023-01-09T00:38:33;4.88;;;2.70;;
31073;SDS011;17730;53.552;9.940;2023-01-09T00:41:01;4.88;;;2.85;;
31073;SDS011;17730;53.552;9.940;2023-01-09T00:43:30;5.38;;;2.50;;
31073;SDS011;17730;53.552;9.940;2023-01-09T00:46:00;4.18;;;2.88;;
31073;SDS011;17730;53.552;9.940;2023-01-09T00:48:29;3.75;;;2.70;;
31073;SDS011;17730;53.552;9.940;2023-01-09T00:50:57;7.72;;;3.22;;
31073;SDS011;17730;53.552;9.940;2023-01-09T00:53:25;4.22;;;2.35;;
31073;SDS011;17730;53.552;9.940;2023-01-09T00:55:53;4.90;;;2.75;;
31073;SDS011;17730;53.552;9.940;2023-01-09T00:58:22;11.63;;;2.42;;
31073;SDS011;17730;53.552;9.940;2023-01-09T01:00:47;5.90;;;3.05;;
31073;SDS011;17730;53.552;9.940;2023-01-09T01:03:13;4.95;;;2.80;;
31073;SDS011;17730;53.552;9.940;2023-01-09T01:05:38;6.38;;;2.80;;
31073;SDS011;17730;53.552;9.940;2023-01-09T01:08:23;4.60;;;2.60;;
31073;SDS011;17730;53.552;9.940;2023-01-09T01:10:48;5.43;;;2.83;;
31073;SDS011;17730;53.552;9.940;2023-01-09T01:13:14;3.38;;;2.60;;
31073;SDS011;17730;53.552;9.940;2023-01-09T01:15:41;7.25;;;2.88;;
31073;SDS011;17730;53.552;9.940;2023-01-09T01:18:08;3.70;;;2.53;;
31073;SDS011;17730;53.552;9.940;2023-01-09T01:20:35;5.28;;;2.67;;
31073;SDS011;17730;53.552;9.940;2023-01-09T01:23:03;4.50;;;2.45;;
31073;SDS011;17730;53.552;9.940;2023-01-09T01:25:31;4.82;;;2.60;;
31073;SDS011;17730;53.552;9.940;2023-01-09T01:30:29;6.88;;;3.28;;
31073;SDS011;17730;53.552;9.940;2023-01-09T01:32:55;8.40;;;3.63;;
31073;SDS011;17730;53.552;9.940;2023-01-09T01:35:20;8.63;;;3.35;;
31073;SDS011;17730;53.552;9.940;2023-01-09T01:37:46;6.95;;;3.15;;
31073;SDS011;17730;53.552;9.940;2023-01-09T01:40:14;6.40;;;3.10;;
31073;SDS011;17730;53.552;9.940;2023-01-09T01:42:50;6.03;;;3.78;;
31073;SDS011;17730;53.552;9.940;2023-01-09T01:45:18;4.65;;;2.83;;
31073;SDS011;17730;53.552;9.940;2023-01-09T01:47:52;5.32;;;3.80;;
31073;SDS011;17730;53.552;9.940;2023-01-09T01:50:30;5.45;;;3.58;;
31073;SDS011;17730;53.552;9.940;2023-01-09T01:55:34;8.52;;;3.38;;
31073;SDS011;17730;53.552;9.940;2023-01-09T01:58:03;11.70;;;3.72;;
31073;SDS011;17730;53.552;9.940;2023-01-09T02:00:32;5.60;;;3.33;;
31073;SDS011;17730;53.552;9.940;2023-01-09T02:03:02;6.50;;;3.90;;
31073;SDS011;17730;53.552;9.940;2023-01-09T02:05:28;7.18;;;3.60;;
31073;SDS011;17730;53.552;9.940;2023-01-09T02:07:54;7.50;;;4.05;;
31073;SDS011;17730;53.552;9.940;2023-01-09T02:10:19;5.63;;;3.85;;
31073;SDS011;17730;53.552;9.940;2023-01-09T02:12:47;5.40;;;3.45;;
31073;SDS011;17730;53.552;9.940;2023-01-09T02:15:13;5.97;;;3.45;;
31073;SDS011;17730;53.552;9.940;2023-01-09T02:20:30;8.30;;;3.50;;
31073;SDS011;17730;53.552;9.940;2023-01-09T02:31:43;7.30;;;3.42;;
31073;SDS011;17730;53.552;9.940;2023-01-09T02:34:15;6.45;;;3.65;;
31073;SDS011;17730;53.552;9.940;2023-01-09T02:36:58;4.50;;;2.97;;
31073;SDS011;17730;53.552;9.940;2023-01-09T02:39:45;6.38;;;3.20;;
31073;SDS011;17730;53.552;9.940;2023-01-09T02:42:25;5.38;;;3.38;;
31073;SDS011;17730;53.552;9.940;2023-01-09T02:44:51;4.30;;;2.97;;
31073;SDS011;17730;53.552;9.940;2023-01-09T02:49:49;8.43;;;3.58;;
31073;SDS011;17730;53.552;9.940;2023-01-09T02:55:09;7.75;;;3.00;;
31073;SDS011;17730;53.552;9.940;2023-01-09T02:57:48;4.63;;;3.05;;
31073;SDS011;17730;53.552;9.940;2023-01-09T03:03:11;7.20;;;2.90;;
31073;SDS011;17730;53.552;9.940;2023-01-09T03:05:46;4.88;;;3.13;;
31073;SDS011;17730;53.552;9.940;2023-01-09T03:08:26;6.40;;;2.78;;
31073;SDS011;17730;53.552;9.940;2023-01-09T03:11:05;4.13;;;2.55;;
31073;SDS011;17730;53.552;9.940;2023-01-09T03:13:34;5.60;;;2.55;;
31073;SDS011;17730;53.552;9.940;2023-01-09T03:16:34;8.48;;;3.00;;
31073;SDS011;17730;53.552;9.940;2023-01-09T03:19:03;3.67;;;2.35;;
31073;SDS011;17730;53.552;9.940;2023-01-09T03:21:31;5.55;;;3.00;;
31073;SDS011;17730;53.552;9.940;2023-01-09T03:23:59;5.47;;;2.22;;
31073;SDS011;17730;53.552;9.940;2023-01-09T03:26:26;3.80;;;2.78;;
31073;SDS011;17730;53.552;9.940;2023-01-09T03:28:53;3.58;;;2.30;;
31073;SDS011;17730;53.552;9.940;2023-01-09T03:31:20;4.50;;;2.33;;
31073;SDS011;17730;53.552;9.940;2023-01-09T03:33:46;5.97;;;2.60;;
31073;SDS011;17730;53.552;9.940;2023-01-09T03:36:12;3.55;;;2.47;;
31073;SDS011;17730;53.552;9.940;2023-01-09T03:38:39;4.20;;;2.50;;
31073;SDS011;17730;53.552;9.940;2023-01-09T03:41:05;4.45;;;2.33;;
31073;SDS011;17730;53.552;9.940;2023-01-09T03:43:31;5.68;;;2.85;;
31073;SDS011;17730;53.552;9.940;2023-01-09T03:45:57;7.38;;;2.25;;
31073;SDS011;17730;53.552;9.940;2023-01-09T03:48:22;4.07;;;1.77;;
31073;SDS011;17730;53.552;9.940;2023-01-09T03:50:49;6.07;;;2.30;;
31073;SDS011;17730;53.552;9.940;2023-01-09T03:53:18;3.33;;;1.90;;
31073;SDS011;17730;53.552;9.940;2023-01-09T03:55:45;3.65;;;1.98;;
31073;SDS011;17730;53.552;9.940;2023-01-09T03:58:12;3.85;;;2.38;;
31073;SDS011;17730;53.552;9.940;2023-01-09T04:00:38;4.18;;;2.00;;
31073;SDS011;17730;53.552;9.940;2023-01-09T04:03:05;6.10;;;2.25;;
31073;SDS011;17730;53.552;9.940;2023-01-09T04:05:31;4.25;;;1.88;;
31073;SDS011;17730;53.552;9.940;2023-01-09T04:07:57;5.60;;;2.72;;
31073;SDS011;17730;53.552;9.940;2023-01-09T04:10:22;4.53;;;1.85;;
31073;SDS011;17730;53.552;9.940;2023-01-09T04:12:48;11.45;;;2.55;;
31073;SDS011;17730;53.552;9.940;2023-01-09T04:15:14;5.60;;;2.97;;
31073;SDS011;17730;53.552;9.940;2023-01-09T04:17:39;3.70;;;2.03;;
31073;SDS011;17730;53.552;9.940;2023-01-09T04:20:05;5.80;;;2.25;;
31073;SDS011;17730;53.552;9.940;2023-01-09T04:22:31;4.10;;;2.00;;
31073;SDS011;17730;53.552;9.940;2023-01-09T04:24:57;4.32;;;2.00;;
31073;SDS011;17730;53.552;9.940;2023-01-09T04:27:22;5.38;;;1.98;;
31073;SDS011;17730;53.552;9.940;2023-01-09T04:29:48;2.70;;;1.67;;
31073;SDS011;17730;53.552;9.940;2023-01-09T04:32:13;4.50;;;1.77;;
31073;SDS011;17730;53.552;9.940;2023-01-09T04:34:41;3.78;;;1.98;;
31073;SDS011;17730;53.552;9.940;2023-01-09T04:37:06;5.07;;;2.03;;
31073;SDS011;17730;53.552;9.940;2023-01-09T04:39:32;3.42;;;1.80;;
31073;SDS011;17730;53.552;9.940;2023-01-09T04:41:57;3.05;;;1.85;;
31073;SDS011;17730;53.552;9.940;2023-01-09T04:44:23;4.55;;;2.30;;
31073;SDS011;17730;53.552;9.940;2023-01-09T04:46:53;3.83;;;1.85;;
31073;SDS011;17730;53.552;9.940;2023-01-09T04:49:20;3.65;;;2.17;;
31073;SDS011;17730;53.552;9.940;2023-01-09T04:51:46;3.88;;;2.15;;
31073;SDS011;17730;53.552;9.940;2023-01-09T04:54:12;3.85;;;2.17;;
31073;SDS011;17730;53.552;9.940;2023-01-09T04:56:37;3.58;;;1.52;;
31073;SDS011;17730;53.552;9.940;2023-01-09T04:59:03;7.43;;;2.20;;
31073;SDS011;17730;53.552;9.940;2023-01-09T05:01:30;7.45;;;2.50;;
31073;SDS011;17730;53.552;9.940;2023-01-09T05:03:56;4.35;;;2.50;;
31073;SDS011;17730;53.552;9.940;2023-01-09T05:06:21;3.20;;;2.03;;
31073;SDS011;17730;53.552;9.940;2023-01-09T05:08:47;7.00;;;2.38;;
31073;SDS011;17730;53.552;9.940;2023-01-09T05:11:13;4.63;;;2.67;;
31073;SDS011;17730;53.552;9.940;2023-01-09T05:13:39;6.53;;;2.78;;
31073;SDS011;17730;53.552;9.940;2023-01-09T05:16:04;3.30;;;2.08;;
31073;SDS011;17730;53.552;9.940;2023-01-09T05:18:30;6.90;;;2.60;;
31073;SDS011;17730;53.552;9.940;2023-01-09T05:20:56;8.20;;;2.35;;
31073;SDS011;17730;53.552;9.940;2023-01-09T05:23:21;9.98;;;2.65;;
31073;SDS011;17730;53.552;9.940;2023-01-09T05:25:47;6.45;;;2.15;;
31073;SDS011;17730;53.552;9.940;2023-01-09T05:28:13;6.45;;;2.65;;
31073;SDS011;17730;53.552;9.940;2023-01-09T05:30:38;5.80;;;3.70;;
31073;SDS011;17730;53.552;9.940;2023-01-09T05:33:04;4.78;;;2.60;;
31073;SDS011;17730;53.552;9.940;2023-01-09T05:35:29;8.05;;;2.22;;
31073;SDS011;17730;53.552;9.940;2023-01-09T05:37:55;5.85;;;2.65;;
31073;SDS011;17730;53.552;9.940;2023-01-09T05:40:20;3.72;;;2.35;;
31073;SDS011;17730;53.552;9.940;2023-01-09T05:42:46;3.80;;;2.63;;
31073;SDS011;17730;53.552;9.940;2023-01-09T05:45:12;5.57;;;2.35;;
31073;SDS011;17730;53.552;9.940;2023-01-09T05:47:38;2.80;;;1.88;;
31073;SDS011;17730;53.552;9.940;2023-01-09T05:50:03;4.28;;;2.08;;
31073;SDS011;17730;53.552;9.940;2023-01-09T05:52:29;6.72;;;2.20;;
31073;SDS011;17730;53.552;9.940;2023-01-09T05:54:55;5.00;;;1.95;;
31073;SDS011;17730;53.552;9.940;2023-01-09T05:57:20;3.70;;;2.60;;
31073;SDS011;17730;53.552;9.940;2023-01-09T05:59:46;4.35;;;1.42;;
31073;SDS011;17730;53.552;9.940;2023-01-09T06:02:11;3.17;;;1.80;;
31073;SDS011;17730;53.552;9.940;2023-01-09T06:04:37;2.95;;;1.70;;
31073;SDS011;17730;53.552;9.940;2023-01-09T06:07:03;4.45;;;1.50;;
31073;SDS011;17730;53.552;9.940;2023-01-09T06:09:28;3.15;;;2.03;;
31073;SDS011;17730;53.552;9.940;2023-01-09T06:11:55;2.20;;;1.60;;
31073;SDS011;17730;53.552;9.940;2023-01-09T06:14:21;2.97;;;1.55;;
31073;SDS011;17730;53.552;9.940;2023-01-09T06:16:47;3.42;;;2.05;;
31073;SDS011;17730;53.552;9.940;2023-01-09T06:19:12;3.17;;;1.80;;
31073;SDS011;17730;53.552;9.940;2023-01-09T06:21:38;2.55;;;1.75;;
31073;SDS011;17730;53.552;9.940;2023-01-09T06:24:04;3.22;;;1.52;;
31073;SDS011;17730;53.552;9.940;2023-01-09T06:26:30;2.38;;;1.77;;
31073;SDS011;17730;53.552;9.940;2023-01-09T06:28:56;3.38;;;1.60;;
31073;SDS011;17730;53.552;9.940;2023-01-09T06:31:22;3.28;;;1.80;;
31073;SDS011;17730;53.552;9.940;2023-01-09T06:33:49;2.80;;;1.73;;
31073;SDS011;17730;53.552;9.940;2023-01-09T06:36:14;2.63;;;1.85;;
31073;SDS011;17730;53.552;9.940;2023-01-09T06:38:40;4.30;;;2.35;;
31073;SDS011;17730;53.552;9.940;2023-01-09T06:41:05;5.18;;;2.00;;
31073;SDS011;17730;53.552;9.940;2023-01-09T06:43:31;5.28;;;2.25;;
31073;SDS011;17730;53.552;9.940;2023-01-09T06:45:56;3.28;;;2.28;;
31073;SDS011;17730;53.552;9.940;2023-01-09T06:48:22;2.78;;;2.05;;
31073;SDS011;17730;53.552;9.940;2023-01-09T06:50:51;3.60;;;2.33;;
31073;SDS011;17730;53.552;9.940;2023-01-09T06:53:17;4.65;;;2.22;;
31073;SDS011;17730;53.552;9.940;2023-01-09T06:55:43;5.90;;;2.50;;
31073;SDS011;17730;53.552;9.940;2023-01-09T06:58:10;5.18;;;2.65;;
31073;SDS011;17730;53.552;9.940;2023-01-09T07:00:36;3.78;;;2.83;;
31073;SDS011;17730;53.552;9.940;2023-01-09T07:03:02;3.30;;;2.60;;
31073;SDS011;17730;53.552;9.940;2023-01-09T07:05:28;3.92;;;2.90;;
31073;SDS011;17730;53.552;9.940;2023-01-09T07:07:54;4.93;;;3.40;;
31073;SDS011;17730;53.552;9.940;2023-01-09T07:10:20;6.38;;;3.60;;
31073;SDS011;17730;53.552;9.940;2023-01-09T07:12:46;5.57;;;3.75;;
31073;SDS011;17730;53.552;9.940;2023-01-09T07:15:12;4.35;;;3.67;;
31073;SDS011;17730;53.552;9.940;2023-01-09T07:17:37;5.60;;;4.15;;
31073;SDS011;17730;53.552;9.940;2023-01-09T07:20:03;6.70;;;4.30;;
31073;SDS011;17730;53.552;9.940;2023-01-09T07:22:29;6.45;;;4.50;;
31073;SDS011;17730;53.552;9.940;2023-01-09T07:24:55;6.20;;;4.50;;
31073;SDS011;17730;53.552;9.940;2023-01-09T07:27:20;6.82;;;4.38;;
31073;SDS011;17730;53.552;9.940;2023-01-09T07:29:46;7.28;;;5.00;;
31073;SDS011;17730;53.552;9.940;2023-01-09T07:32:12;7.80;;;4.82;;
31073;SDS011;17730;53.552;9.940;2023-01-09T07:34:37;7.47;;;5.55;;
31073;SDS011;17730;53.552;9.940;2023-01-09T07:37:03;7.13;;;4.82;;
31073;SDS011;17730;53.552;9.940;2023-01-09T07:39:29;6.95;;;4.82;;
31073;SDS011;17730;53.552;9.940;2023-01-09T07:41:54;10.73;;;5.68;;
31073;SDS011;17730;53.552;9.940;2023-01-09T07:44:20;6.18;;;5.10;;
31073;SDS011;17730;53.552;9.940;2023-01-09T07:46:45;9.90;;;5.88;;
31073;SDS011;17730;53.552;9.940;2023-01-09T07:49:11;7.72;;;5.30;;
31073;SDS011;17730;53.552;9.940;2023-01-09T07:51:37;7.35;;;5.25;;
31073;SDS011;17730;53.552;9.940;2023-01-09T07:54:06;9.98;;;6.38;;
31073;SDS011;17730;53.552;9.940;2023-01-09T07:56:32;9.55;;;5.50;;
31073;SDS011;17730;53.552;9.940;2023-01-09T07:58:59;9.60;;;6.07;;
31073;SDS011;17730;53.552;9.940;2023-01-09T08:01:24;13.35;;;6.97;;
31073;SDS011;17730;53.552;9.940;2023-01-09T08:03:50;12.02;;;6.53;;
31073;SDS011;17730;53.552;9.940;2023-01-09T08:06:15;11.30;;;6.88;;
31073;SDS011;17730;53.552;9.940;2023-01-09T08:08:41;9.48;;;6.45;;
31073;SDS011;17730;53.552;9.940;2023-01-09T08:11:07;13.95;;;7.65;;
31073;SDS011;17730;53.552;9.940;2023-01-09T08:13:33;15.65;;;6.75;;
31073;SDS011;17730;53.552;9.940;2023-01-09T08:15:58;18.63;;;7.63;;
31073;SDS011;17730;53.552;9.940;2023-01-09T08:18:24;11.00;;;6.40;;
31073;SDS011;17730;53.552;9.940;2023-01-09T08:20:50;9.65;;;6.88;;
31073;SDS011;17730;53.552;9.940;2023-01-09T08:23:15;12.73;;;7.32;;
31073;SDS011;17730;53.552;9.940;2023-01-09T08:25:41;10.38;;;6.97;;
31073;SDS011;17730;53.552;9.940;2023-01-09T08:28:06;11.55;;;7.38;;
31073;SDS011;17730;53.552;9.940;2023-01-09T08:30:33;10.35;;;6.70;;
31073;SDS011;17730;53.552;9.940;2023-01-09T08:32:59;14.23;;;8.50;;
31073;SDS011;17730;53.552;9.940;2023-01-09T08:35:26;15.73;;;7.70;;
31073;SDS011;17730;53.552;9.940;2023-01-09T08:38:03;12.88;;;7.90;;
31073;SDS011;17730;53.552;9.940;2023-01-09T08:40:29;15.27;;;8.15;;
31073;SDS011;17730;53.552;9.940;2023-01-09T08:42:55;16.92;;;8.88;;
31073;SDS011;17730;53.552;9.940;2023-01-09T08:45:39;16.98;;;9.57;;
31073;SDS011;17730;53.552;9.940;2023-01-09T08:48:23;12.55;;;8.57;;
31073;SDS011;17730;53.552;9.940;2023-01-09T08:50:49;18.92;;;10.48;;
31073;SDS011;17730;53.552;9.940;2023-01-09T08:53:24;19.45;;;10.80;;
31073;SDS011;17730;53.552;9.940;2023-01-09T08:55:50;24.73;;;12.07;;
31073;SDS011;17730;53.552;9.940;2023-01-09T08:58:16;18.10;;;10.18;;
31073;SDS011;17730;53.552;9.940;2023-01-09T09:00:42;19.77;;;10.27;;
31073;SDS011;17730;53.552;9.940;2023-01-09T09:03:07;19.38;;;10.75;;
31073;SDS011;17730;53.552;9.940;2023-01-09T09:05:35;21.10;;;10.40;;
31073;SDS011;17730;53.552;9.940;2023-01-09T09:08:01;19.80;;;10.07;;
31073;SDS011;17730;53.552;9.940;2023-01-09T09:10:27;21.58;;;10.93;;
31073;SDS011;17730;53.552;9.940;2023-01-09T09:12:54;21.20;;;10.10;;
31073;SDS011;17730;53.552;9.940;2023-01-09T09:15:22;15.57;;;9.05;;
31073;SDS011;17730;53.552;9.940;2023-01-09T09:17:53;20.50;;;9.98;;
31073;SDS011;17730;53.552;9.940;2023-01-09T09:20:36;18.95;;;10.55;;
31073;SDS011;17730;53.552;9.940;2023-01-09T09:23:03;18.45;;;9.82;;
31073;SDS011;17730;53.552;9.940;2023-01-09T09:25:29;19.48;;;10.02;;
31073;SDS011;17730;53.552;9.940;2023-01-09T09:28:17;20.58;;;9.40;;
31073;SDS011;17730;53.552;9.940;2023-01-09T09:30:43;16.55;;;8.57;;
31073;SDS011;17730;53.552;9.940;2023-01-09T09:33:08;21.08;;;9.82;;
31073;SDS011;17730;53.552;9.940;2023-01-09T09:35:34;18.50;;;8.45;;
31073;SDS011;17730;53.552;9.940;2023-01-09T09:38:01;22.35;;;8.48;;
31073;SDS011;17730;53.552;9.940;2023-01-09T09:40:44;16.77;;;7.28;;
31073;SDS011;17730;53.552;9.940;2023-01-09T09:44:24;16.58;;;7.72;;
31073;SDS011;17730;53.552;9.940;2023-01-09T09:53:46;17.92;;;7.20;;
31073;SDS011;17730;53.552;9.940;2023-01-09T09:56:14;17.30;;;7.18;;
31073;SDS011;17730;53.552;9.940;2023-01-09T09:58:47;17.65;;;7.10;;
31073;SDS011;17730;53.552;9.940;2023-01-09T10:01:21;11.40;;;5.65;;
31073;SDS011;17730;53.552;9.940;2023-01-09T10:04:17;11.57;;;6.15;;
31073;SDS011;17730;53.552;9.940;2023-01-09T10:06:47;17.48;;;6.78;;
31073;SDS011;17730;53.552;9.940;2023-01-09T10:15:05;16.33;;;6.57;;
31073;SDS011;17730;53.552;9.940;2023-01-09T10:28:49;14.98;;;6.07;;
31073;SDS011;17730;53.552;9.940;2023-01-09T10:36:53;10.70;;;5.65;;
31073;SDS011;17730;53.552;9.940;2023-01-09T10:39:22;17.90;;;6.05;;
31073;SDS011;17730;53.552;9.940;2023-01-09T10:41:58;15.40;;;5.30;;
31073;SDS011;17730;53.552;9.940;2023-01-09T10:44:35;14.93;;;5.30;;
31073;SDS011;17730;53.552;9.940;2023-01-09T10:47:14;12.68;;;5.20;;
31073;SDS011;17730;53.552;9.940;2023-01-09T10:49:42;27.90;;;5.97;;
31073;SDS011;17730;53.552;9.940;2023-01-09T10:54:54;13.93;;;5.28;;
31073;SDS011;17730;53.552;9.940;2023-01-09T11:00:04;20.23;;;5.72;;
31073;SDS011;17730;53.552;9.940;2023-01-09T11:02:32;19.02;;;5.07;;
31073;SDS011;17730;53.552;9.940;2023-01-09T11:04:59;24.38;;;6.05;;
31073;SDS011;17730;53.552;9.940;2023-01-09T11:07:28;19.65;;;5.75;;
31073;SDS011;17730;53.552;9.940;2023-01-09T11:10:05;22.23;;;7.25;;
31073;SDS011;17730;53.552;9.940;2023-01-09T11:12:34;19.65;;;4.95;;
31073;SDS011;17730;53.552;9.940;2023-01-09T11:17:44;12.88;;;4.95;;
31073;SDS011;17730;53.552;9.940;2023-01-09T11:22:51;12.32;;;5.45;;
31073;SDS011;17730;53.552;9.940;2023-01-09T11:25:22;15.07;;;4.97;;
31073;SDS011;17730;53.552;9.940;2023-01-09T11:28:03;13.80;;;5.05;;
31073;SDS011;17730;53.552;9.940;2023-01-09T11:30:31;20.25;;;5.68;;
31073;SDS011;17730;53.552;9.940;2023-01-09T11:33:00;15.25;;;5.15;;
31073;SDS011;17730;53.552;9.940;2023-01-09T11:35:42;13.35;;;4.30;;
31073;SDS011;17730;53.552;9.940;2023-01-09T11:38:16;16.25;;;4.80;;
31073;SDS011;17730;53.552;9.940;2023-01-09T11:40:47;18.52;;;5.32;;
31073;SDS011;17730;53.552;9.940;2023-01-09T11:45:46;18.65;;;5.57;;
31073;SDS011;17730;53.552;9.940;2023-01-09T11:50:58;11.40;;;5.15;;
31073;SDS011;17730;53.552;9.940;2023-01-09T11:53:26;14.63;;;5.25;;
31073;SDS011;17730;53.552;9.940;2023-01-09T11:56:10;12.90;;;5.05;;
31073;SDS011;17730;53.552;9.940;2023-01-09T11:58:38;17.85;;;5.40;;
31073;SDS011;17730;53.552;9.940;2023-01-09T12:04:54;21.65;;;5.97;;
31073;SDS011;17730;53.552;9.940;2023-01-09T12:15:43;21.52;;;6.97;;
31073;SDS011;17730;53.552;9.940;2023-01-09T12:18:56;17.20;;;5.88;;
31073;SDS011;17730;53.552;9.940;2023-01-09T12:21:40;26.02;;;5.82;;
31073;SDS011;17730;53.552;9.940;2023-01-09T12:27:08;14.02;;;5.55;;
31073;SDS011;17730;53.552;9.940;2023-01-09T12:46:47;17.15;;;7.22;;
31073;SDS011;17730;53.552;9.940;2023-01-09T12:49:36;14.77;;;5.97;;
31073;SDS011;17730;53.552;9.940;2023-01-09T12:57:48;19.52;;;7.70;;
31073;SDS011;17730;53.552;9.940;2023-01-09T13:00:26;17.25;;;7.40;;
31073;SDS011;17730;53.552;9.940;2023-01-09T13:03:09;12.77;;;6.32;;
31073;SDS011;17730;53.552;9.940;2023-01-09T13:05:57;19.40;;;6.50;;
31073;SDS011;17730;53.552;9.940;2023-01-09T13:08:33;18.08;;;7.03;;
31073;SDS011;17730;53.552;9.940;2023-01-09T13:16:17;16.88;;;7.38;;
31073;SDS011;17730;53.552;9.940;2023-01-09T13:18:51;14.52;;;6.70;;
31073;SDS011;17730;53.552;9.940;2023-01-09T13:21:24;14.43;;;6.35;;
31073;SDS011;17730;53.552;9.940;2023-01-09T13:23:56;16.88;;;7.43;;
31073;SDS011;17730;53.552;9.940;2023-01-09T13:26:39;12.98;;;7.20;;
31073;SDS011;17730;53.552;9.940;2023-01-09T13:34:12;23.65;;;7.15;;
31073;SDS011;17730;53.552;9.940;2023-01-09T13:36:46;16.58;;;6.65;;
31073;SDS011;17730;53.552;9.940;2023-01-09T13:39:20;15.75;;;6.80;;
31073;SDS011;17730;53.552;9.940;2023-01-09T13:41:52;18.85;;;6.78;;
31073;SDS011;17730;53.552;9.940;2023-01-09T13:44:40;21.55;;;7.35;;
31073;SDS011;17730;53.552;9.940;2023-01-09T13:47:13;19.48;;;7.03;;
31073;SDS011;17730;53.552;9.940;2023-01-09T14:08:14;16.13;;;6.85;;
31073;SDS011;17730;53.552;9.940;2023-01-09T14:10:56;11.52;;;5.90;;
31073;SDS011;17730;53.552;9.940;2023-01-09T14:13:32;14.88;;;7.30;;
31073;SDS011;17730;53.552;9.940;2023-01-09T14:16:23;18.17;;;7.00;;
31073;SDS011;17730;53.552;9.940;2023-01-09T14:24:18;13.05;;;6.47;;
31073;SDS011;17730;53.552;9.940;2023-01-09T14:26:47;11.00;;;6.20;;
31073;SDS011;17730;53.552;9.940;2023-01-09T14:34:54;11.57;;;5.03;;
31073;SDS011;17730;53.552;9.940;2023-01-09T14:37:32;15.80;;;7.07;;
31073;SDS011;17730;53.552;9.940;2023-01-09T14:39:59;15.27;;;6.22;;
31073;SDS011;17730;53.552;9.940;2023-01-09T14:42:26;11.70;;;4.88;;
31073;SDS011;17730;53.552;9.940;2023-01-09T14:47:33;8.65;;;5.15;;
31073;SDS011;17730;53.552;9.940;2023-01-09T14:55:01;14.85;;;6.00;;
31073;SDS011;17730;53.552;9.940;2023-01-09T14:57:32;13.25;;;7.85;;
31073;SDS011;17730;53.552;9.940;2023-01-09T15:02:39;12.65;;;6.60;;
31073;SDS011;17730;53.552;9.940;2023-01-09T15:05:06;16.70;;;6.97;;
31073;SDS011;17730;53.552;9.940;2023-01-09T15:07:35;13.95;;;6.63;;
31073;SDS011;17730;53.552;9.940;2023-01-09T15:10:14;10.38;;;6.20;;
31073;SDS011;17730;53.552;9.940;2023-01-09T15:12:44;16.48;;;6.93;;
31073;SDS011;17730;53.552;9.940;2023-01-09T15:15:11;15.43;;;6.57;;
31073;SDS011;17730;53.552;9.940;2023-01-09T15:17:39;26.60;;;10.93;;
31073;SDS011;17730;53.552;9.940;2023-01-09T15:20:08;14.38;;;6.93;;
31073;SDS011;17730;53.552;9.940;2023-01-09T15:22:46;12.05;;;7.30;;
31073;SDS011;17730;53.552;9.940;2023-01-09T15:27:54;12.07;;;6.85;;
31073;SDS011;17730;53.552;9.940;2023-01-09T15:33:07;12.23;;;7.38;;
31073;SDS011;17730;53.552;9.940;2023-01-09T15:35:42;16.65;;;8.65;;
31073;SDS011;17730;53.552;9.940;2023-01-09T15:38:10;12.18;;;7.03;;
31073;SDS011;17730;53.552;9.940;2023-01-09T15:40:39;20.25;;;7.38;;
31073;SDS011;17730;53.552;9.940;2023-01-09T15:43:05;13.85;;;6.97;;
31073;SDS011;17730;53.552;9.940;2023-01-09T15:50:52;12.07;;;7.57;;
31073;SDS011;17730;53.552;9.940;2023-01-09T15:53:26;17.10;;;6.00;;
31073;SDS011;17730;53.552;9.940;2023-01-09T15:58:38;18.25;;;8.38;;
31073;SDS011;17730;53.552;9.940;2023-01-09T16:01:06;18.00;;;7.45;;
31073;SDS011;17730;53.552;9.940;2023-01-09T16:03:38;14.95;;;7.30;;
31073;SDS011;17730;53.552;9.940;2023-01-09T16:06:08;13.70;;;7.35;;
31073;SDS011;17730;53.552;9.940;2023-01-09T16:08:39;11.80;;;5.70;;
31073;SDS011;17730;53.552;9.940;2023-01-09T16:11:07;19.58;;;6.50;;
31073;SDS011;17730;53.552;9.940;2023-01-09T16:13:43;10.68;;;6.80;;
31073;SDS011;17730;53.552;9.940;2023-01-09T16:16:10;17.52;;;7.50;;
31073;SDS011;17730;53.552;9.940;2023-01-09T16:18:48;9.68;;;5.28;;
31073;SDS011;17730;53.552;9.940;2023-01-09T16:23:53;12.93;;;6.65;;
31073;SDS011;17730;53.552;9.940;2023-01-09T16:26:45;9.57;;;5.15;;
31073;SDS011;17730;53.552;9.940;2023-01-09T16:29:27;10.38;;;4.20;;
31073;SDS011;17730;53.552;9.940;2023-01-09T16:32:03;9.88;;;5.03;;
31073;SDS011;17730;53.552;9.940;2023-01-09T16:34:34;8.63;;;4.53;;
31073;SDS011;17730;53.552;9.940;2023-01-09T16:37:00;7.57;;;4.10;;
31073;SDS011;17730;53.552;9.940;2023-01-09T16:39:26;10.00;;;4.25;;
31073;SDS011;17730;53.552;9.940;2023-01-09T16:41:55;7.72;;;4.80;;
31073;SDS011;17730;53.552;9.940;2023-01-09T16:44:40;13.77;;;5.50;;
31073;SDS011;17730;53.552;9.940;2023-01-09T16:47:08;11.55;;;4.07;;
31073;SDS011;17730;53.552;9.940;2023-01-09T16:49:35;12.45;;;5.95;;
31073;SDS011;17730;53.552;9.940;2023-01-09T16:52:01;13.73;;;5.45;;
31073;SDS011;17730;53.552;9.940;2023-01-09T16:54:27;13.25;;;5.85;;
31073;SDS011;17730;53.552;9.940;2023-01-09T16:56:54;11.15;;;5.45;;
31073;SDS011;17730;53.552;9.940;2023-01-09T16:59:21;11.77;;;4.60;;
31073;SDS011;17730;53.552;9.940;2023-01-09T17:01:49;11.18;;;5.50;;
31073;SDS011;17730;53.552;9.940;2023-01-09T17:04:16;8.88;;;5.18;;
31073;SDS011;17730;53.552;9.940;2023-01-09T17:06:44;10.18;;;5.65;;
31073;SDS011;17730;53.552;9.940;2023-01-09T17:09:13;10.98;;;5.13;;
31073;SDS011;17730;53.552;9.940;2023-01-09T17:11:40;12.05;;;6.32;;
31073;SDS011;17730;53.552;9.940;2023-01-09T17:14:06;8.48;;;5.53;;
31073;SDS011;17730;53.552;9.940;2023-01-09T17:16:35;8.57;;;5.15;;
31073;SDS011;17730;53.552;9.940;2023-01-09T17:19:01;8.48;;;5.82;;
31073;SDS011;17730;53.552;9.940;2023-01-09T17:21:27;12.45;;;7.78;;
31073;SDS011;17730;53.552;9.940;2023-01-09T17:23:53;8.88;;;6.10;;
31073;SDS011;17730;53.552;9.940;2023-01-09T17:26:39;10.45;;;6.32;;
31073;SDS011;17730;53.552;9.940;2023-01-09T17:29:25;10.30;;;6.03;;
31073;SDS011;17730;53.552;9.940;2023-01-09T17:31:51;10.02;;;6.90;;
31073;SDS011;17730;53.552;9.940;2023-01-09T17:34:17;15.60;;;7.88;;
31073;SDS011;17730;53.552;9.940;2023-01-09T17:36:43;11.00;;;6.88;;
31073;SDS011;17730;53.552;9.940;2023-01-09T17:39:11;14.43;;;7.50;;
31073;SDS011;17730;53.552;9.940;2023-01-09T17:41:38;10.57;;;6.70;;
31073;SDS011;17730;53.552;9.940;2023-01-09T17:44:03;10.02;;;7.35;;
31073;SDS011;17730;53.552;9.940;2023-01-09T17:46:30;14.75;;;7.55;;
31073;SDS011;17730;53.552;9.940;2023-01-09T17:48:58;19.42;;;9.90;;